Hovedside
METAR-TAF:

METAR-TAF

Lufthavner :

Kramfors lufthavn

Kramfors, Sverige

breddegrad: 63-03N, lengdegrad: 017-46E, høyde over havet: 10 m

Gjeldene værobservasjon

Denne rapporten ble laget for 21 minutter siden, klokken 04:20 UTC
Vind 5 kt fra Nord-nordvest
Temperatur -2°C
Luftfuktighet 100%
Trykk 1009 hPa
Sikt: 0200 m
underkjølt tåke

METAR: ESNK 140420Z 33005KT 0200 R17/0900N R35/0750N FZFG VV003 M02/M02 Q1009

Tid: 06:41 (04:41 UTC)

Varsel

Denne rapporten ble laget for 11 minutter siden, klokken 04:30 UTC
Varsel gyldig fra 14. klokken 05 UTC til 14. klokken 09 UTC
Vind 5 kt fra Nord
Sikt: 0200 m
i en høyde av 200 ft
underkjølt tåke
Blir
fra 14. klokken 06 UTC til 14. klokken 09 UTC
Sikt 10 km eller mer
ingen skyer under 1500 m og ingen bygeskyer

TAF: ESNK 140430Z 1405/1409 35005KT 0200 FZFG VV002 BECMG 1406/1409 CAVOK

Værobservasjoner og værvarsel for over 4000 flyplasser (METAR- og TAF-rapporter).

Tilgjengelige stasjoner er representert av de røde og gule prikkene på kartet.

Hold musepekeren over prikken for å se navnet på stasjonen.

Klikk så for å se værobservasjoner og -varsler.

For å forandre kartet kan du klikke på den grønne knappen med svart kryss for å zoome inn, på den grønne knappen med strek for å zoome ut, eller på de grønne pilene for å se tilstøtende kart.


METAR-TAF: